Time;durP1;ratioP1;P1;durP2;ratioP2;P2;SDS_P1;SDS_P2;PMS_P1;PMS_P2;Temp;Humidity;BMP_temperature;BMP_pressure;BME280_temperature;BME280_humidity;BME280_pressure;Samples;Min_cycle;Max_cycle;Signal;HPM_P1;HPM_P2
2022/03/26 00:01:36;;;;;;;16.05;11.43;;;19.90;50.90;;;;;;4972487;28;20022;-76
2022/03/26 00:04:01;;;;;;;16.80;10.57;;;19.90;51.00;;;;;;4973141;28;20045;-76
2022/03/26 00:06:27;;;;;;;16.20;12.00;;;19.90;50.90;;;;;;4973223;28;20033;-75
2022/03/26 00:08:53;;;;;;;16.65;11.23;;;19.80;50.90;;;;;;4971950;28;20380;-74
2022/03/26 00:11:19;;;;;;;17.92;11.93;;;19.80;50.80;;;;;;4974179;28;20025;-75
2022/03/26 00:13:45;;;;;;;18.00;12.80;;;19.80;50.80;;;;;;4987579;28;20039;-74
2022/03/26 00:16:11;;;;;;;15.90;12.23;;;19.70;50.70;;;;;;4984787;28;20045;-77
2022/03/26 00:18:38;;;;;;;14.73;11.02;;;19.70;50.60;;;;;;4986434;28;20532;-76
2022/03/26 00:21:04;;;;;;;15.68;11.18;;;19.70;50.60;;;;;;4981745;28;20022;-76
2022/03/26 00:23:30;;;;;;;16.10;11.15;;;19.70;50.60;;;;;;4992495;28;20064;-74
2022/03/26 00:25:58;;;;;;;14.85;12.10;;;19.70;50.60;;;;;;4991570;28;20121;-75
2022/03/26 00:28:24;;;;;;;14.27;11.40;;;19.70;50.60;;;;;;4992099;28;20406;-76
2022/03/26 00:30:50;;;;;;;14.88;11.68;;;19.60;50.60;;;;;;4991178;28;20022;-76
2022/03/26 00:33:17;;;;;;;15.57;10.85;;;19.60;50.60;;;;;;4988744;28;20022;-75
2022/03/26 00:35:43;;;;;;;16.10;11.57;;;19.60;50.60;;;;;;4991527;28;20497;-75
2022/03/26 00:38:09;;;;;;;16.58;11.40;;;19.60;50.70;;;;;;4991908;28;20030;-75
2022/03/26 00:40:35;;;;;;;14.35;11.02;;;19.60;50.70;;;;;;4991603;28;20482;-75
2022/03/26 00:43:00;;;;;;;15.95;11.00;;;19.60;50.70;;;;;;4990834;28;20098;-74
2022/03/26 00:45:29;;;;;;;16.20;11.82;;;19.60;50.70;;;;;;4977769;28;20485;-76
2022/03/26 00:47:55;;;;;;;13.63;10.77;;;19.60;50.70;;;;;;4973506;28;20022;-76
2022/03/26 00:50:21;;;;;;;19.17;12.38;;;19.50;50.70;;;;;;4991485;28;20114;-74
2022/03/26 00:52:47;;;;;;;14.23;11.20;;;19.60;50.70;;;;;;4991614;28;20102;-76
2022/03/26 00:55:13;;;;;;;14.35;10.65;;;19.50;50.70;;;;;;4991755;28;20089;-75
2022/03/26 00:57:39;;;;;;;15.40;11.05;;;19.50;50.70;;;;;;4972613;28;20031;-75
2022/03/26 01:00:06;;;;;;;17.33;11.30;;;19.50;50.70;;;;;;4976024;28;20041;-75
2022/03/26 01:02:32;;;;;;;18.13;10.98;;;19.50;50.80;;;;;;4971978;28;20053;-74
2022/03/26 01:04:59;;;;;;;15.02;11.23;;;19.40;50.70;;;;;;4972543;28;20030;-75
2022/03/26 01:07:26;;;;;;;16.98;11.82;;;19.40;50.70;;;;;;4972278;28;20069;-73
2022/03/26 01:09:53;;;;;;;15.57;11.10;;;19.40;50.70;;;;;;4990699;28;20113;-75
2022/03/26 01:12:19;;;;;;;13.60;10.98;;;19.40;50.70;;;;;;4991597;28;20478;-74
2022/03/26 01:14:45;;;;;;;15.38;11.07;;;19.40;50.70;;;;;;4973830;28;20057;-75
2022/03/26 01:17:10;;;;;;;16.15;10.60;;;19.40;50.70;;;;;;4991597;28;20451;-74
2022/03/26 01:19:36;;;;;;;15.45;10.73;;;19.40;50.70;;;;;;4993539;28;20383;-74
2022/03/26 01:22:02;;;;;;;13.88;10.90;;;19.40;50.70;;;;;;4988808;28;20058;-74
2022/03/26 01:24:27;;;;;;;13.98;10.82;;;19.30;50.70;;;;;;4976094;28;20105;-73
2022/03/26 01:26:53;;;;;;;15.90;10.88;;;19.30;50.70;;;;;;4975648;28;20023;-74
2022/03/26 01:29:19;;;;;;;15.05;10.98;;;19.30;50.60;;;;;;4975833;28;20068;-74
2022/03/26 01:31:44;;;;;;;13.45;10.60;;;19.30;50.60;;;;;;4975566;28;20027;-74
2022/03/26 01:34:10;;;;;;;14.55;10.52;;;19.30;50.60;;;;;;4958447;28;20026;-74
2022/03/26 01:36:36;;;;;;;14.85;11.18;;;19.30;50.50;;;;;;4981194;28;20512;-74
2022/03/26 01:39:02;;;;;;;14.95;11.48;;;19.20;50.50;;;;;;4994988;28;20479;-74
2022/03/26 01:41:28;;;;;;;14.35;11.05;;;19.30;50.50;;;;;;4977804;28;20048;-74
2022/03/26 01:43:53;;;;;;;13.20;9.90;;;19.20;50.50;;;;;;4994853;28;20033;-74
2022/03/26 01:46:20;;;;;;;13.57;10.68;;;19.20;50.50;;;;;;4995048;28;20022;-76
2022/03/26 01:48:48;;;;;;;15.68;11.85;;;19.20;50.50;;;;;;4994705;28;20065;-74
2022/03/26 01:51:14;;;;;;;12.23;10.00;;;19.20;50.60;;;;;;4994337;28;20030;-73
2022/03/26 01:53:48;;;;;;;12.85;10.27;;;19.20;50.60;;;;;;4994341;28;20397;-74
2022/03/26 01:56:16;;;;;;;14.00;10.05;;;19.10;50.60;;;;;;4977235;28;20034;-73
2022/03/26 01:58:42;;;;;;;14.23;10.00;;;19.10;50.60;;;;;;4994473;28;20031;-73
2022/03/26 02:01:08;;;;;;;14.75;10.68;;;19.10;50.60;;;;;;4994696;28;20054;-74
2022/03/26 02:03:34;;;;;;;13.10;10.65;;;19.10;50.60;;;;;;4989786;28;20124;-74
2022/03/26 02:06:00;;;;;;;16.25;10.73;;;19.10;50.60;;;;;;4995060;28;20029;-74
2022/03/26 02:08:26;;;;;;;14.63;9.70;;;19.00;50.60;;;;;;4994799;28;20490;-74
2022/03/26 02:10:51;;;;;;;14.40;9.95;;;19.10;50.70;;;;;;4994070;28;20481;-76
2022/03/26 02:13:17;;;;;;;14.32;10.38;;;19.00;50.60;;;;;;4994684;28;20050;-74
2022/03/26 02:15:44;;;;;;;16.10;10.30;;;19.00;50.60;;;;;;4994263;28;20033;-74
2022/03/26 02:18:10;;;;;;;13.85;10.52;;;19.00;50.60;;;;;;4994232;28;20030;-76
2022/03/26 02:20:37;;;;;;;17.23;10.25;;;19.00;50.60;;;;;;4976661;28;20085;-77
2022/03/26 02:23:03;;;;;;;16.70;10.95;;;19.00;50.60;;;;;;4976911;28;20033;-74
2022/03/26 02:25:29;;;;;;;14.27;9.43;;;19.00;50.70;;;;;;4994682;28;20022;-75
2022/03/26 02:27:55;;;;;;;14.05;10.88;;;18.90;50.60;;;;;;4994005;28;20026;-75
2022/03/26 02:30:21;;;;;;;15.07;10.15;;;18.90;50.50;;;;;;4993287;28;20097;-74
2022/03/26 02:32:47;;;;;;;14.00;10.05;;;18.90;50.50;;;;;;4993544;28;20445;-75
2022/03/26 02:35:13;;;;;;;17.58;10.73;;;18.90;50.40;;;;;;4994185;28;20437;-76
2022/03/26 02:37:39;;;;;;;14.27;10.02;;;18.90;50.70;;;;;;4993779;28;20030;-75
2022/03/26 02:40:07;;;;;;;14.63;10.57;;;18.90;50.40;;;;;;4994047;28;20081;-73
2022/03/26 02:42:34;;;;;;;12.18;9.52;;;18.90;50.40;;;;;;4993772;28;20386;-76
2022/03/26 02:45:00;;;;;;;16.42;10.35;;;18.90;50.40;;;;;;4976592;28;20050;-75
2022/03/26 02:47:26;;;;;;;13.02;10.02;;;18.90;50.50;;;;;;4976727;28;20062;-74
2022/03/26 02:49:52;;;;;;;13.90;9.57;;;18.90;50.50;;;;;;4993539;28;20057;-73
2022/03/26 02:52:18;;;;;;;16.27;10.07;;;18.90;50.50;;;;;;4975793;28;20038;-74
2022/03/26 02:54:43;;;;;;;14.52;10.13;;;18.80;50.50;;;;;;4993600;28;20085;-76
2022/03/26 02:57:09;;;;;;;14.38;9.23;;;18.80;50.50;;;;;;4993720;28;20084;-74
2022/03/26 02:59:35;;;;;;;14.68;10.02;;;18.80;50.50;;;;;;4993364;28;20402;-76
2022/03/26 03:02:01;;;;;;;15.10;10.00;;;18.80;50.50;;;;;;4993879;28;20355;-74
2022/03/26 03:04:27;;;;;;;12.60;9.23;;;18.80;50.50;;;;;;4993211;28;20446;-77
2022/03/26 03:06:53;;;;;;;11.75;9.18;;;18.80;50.50;;;;;;4993268;28;20054;-73
2022/03/26 03:09:19;;;;;;;12.80;9.55;;;18.80;50.50;;;;;;4993538;28;20414;-77
2022/03/26 03:11:45;;;;;;;13.80;9.57;;;18.80;50.50;;;;;;4993051;28;20105;-74
2022/03/26 03:14:11;;;;;;;12.38;9.55;;;18.80;50.50;;;;;;4993496;28;20522;-74
2022/03/26 03:16:37;;;;;;;12.45;9.18;;;18.80;50.50;;;;;;4993051;28;20026;-75
2022/03/26 03:19:06;;;;;;;15.18;9.68;;;18.70;50.50;;;;;;4975086;28;20138;-74
2022/03/26 03:21:32;;;;;;;12.32;8.88;;;18.70;50.40;;;;;;4992969;28;20062;-74
2022/03/26 03:23:58;;;;;;;12.63;9.32;;;18.70;50.40;;;;;;4993522;28;20402;-74
2022/03/26 03:26:23;;;;;;;12.57;9.10;;;18.70;50.40;;;;;;4992904;28;20037;-79
2022/03/26 03:28:49;;;;;;;13.80;9.85;;;18.70;50.40;;;;;;4992820;28;20441;-75
2022/03/26 03:31:15;;;;;;;14.00;9.73;;;18.70;50.50;;;;;;4992957;28;20478;-74
2022/03/26 03:33:40;;;;;;;12.18;9.25;;;18.70;50.50;;;;;;4992752;28;20114;-74
2022/03/26 03:36:06;;;;;;;10.40;8.10;;;18.70;50.50;;;;;;4993020;28;20458;-74
2022/03/26 03:38:32;;;;;;;14.75;9.40;;;18.60;50.40;;;;;;4992700;28;20045;-75
2022/03/26 03:40:58;;;;;;;12.88;8.75;;;18.60;50.50;;;;;;4993078;28;20030;-76
2022/03/26 03:43:24;;;;;;;13.32;9.15;;;18.60;50.50;;;;;;4992776;28;20029;-75
2022/03/26 03:45:50;;;;;;;13.27;8.63;;;18.60;50.50;;;;;;4975099;28;20446;-75
2022/03/26 03:48:16;;;;;;;11.35;9.15;;;18.60;50.50;;;;;;4992655;28;20030;-74
2022/03/26 03:50:42;;;;;;;12.57;8.70;;;18.60;50.50;;;;;;4992160;28;20030;-75
2022/03/26 03:53:08;;;;;;;12.82;8.90;;;18.60;50.50;;;;;;4992815;28;20072;-77
2022/03/26 03:55:33;;;;;;;11.38;8.35;;;18.60;50.50;;;;;;4992379;28;20490;-74
2022/03/26 03:57:59;;;;;;;12.00;9.23;;;18.60;50.50;;;;;;4975356;28;20022;-74
2022/03/26 04:00:25;;;;;;;10.95;8.15;;;18.60;50.50;;;;;;4975029;28;20482;-73
2022/03/26 04:02:53;;;;;;;12.13;8.68;;;18.50;50.50;;;;;;4991937;28;20025;-76
2022/03/26 04:05:19;;;;;;;11.43;9.50;;;18.50;50.50;;;;;;4992091;28;20054;-77
2022/03/26 04:07:44;;;;;;;11.13;8.00;;;18.50;50.50;;;;;;4992177;28;20066;-75
2022/03/26 04:10:11;;;;;;;14.70;8.43;;;18.50;50.50;;;;;;4992400;28;20022;-76
2022/03/26 04:12:38;;;;;;;13.77;8.80;;;18.50;50.50;;;;;;4974720;28;20056;-77
2022/03/26 04:15:05;;;;;;;11.45;8.50;;;18.50;50.50;;;;;;4992287;28;20026;-76
2022/03/26 04:17:32;;;;;;;15.60;9.48;;;18.50;50.40;;;;;;4992290;28;20032;-76
2022/03/26 04:19:58;;;;;;;11.85;9.05;;;18.50;50.50;;;;;;4974711;28;20121;-75
2022/03/26 04:22:24;;;;;;;11.70;8.68;;;18.40;50.40;;;;;;4992163;28;20054;-77
2022/03/26 04:24:50;;;;;;;11.55;8.27;;;18.40;50.50;;;;;;4992034;28;20445;-77
2022/03/26 04:27:15;;;;;;;14.88;9.55;;;18.40;50.50;;;;;;4992088;28;20030;-76
2022/03/26 04:29:41;;;;;;;11.57;8.35;;;18.40;50.50;;;;;;4991848;28;20026;-76
2022/03/26 04:32:07;;;;;;;12.30;9.27;;;18.40;50.50;;;;;;4991890;28;20031;-74
2022/03/26 04:34:33;;;;;;;11.75;7.97;;;18.40;50.50;;;;;;4991548;28;20053;-75
2022/03/26 04:36:58;;;;;;;14.20;9.85;;;18.40;50.50;;;;;;4992330;28;20068;-74
2022/03/26 04:39:24;;;;;;;12.70;8.98;;;18.40;50.50;;;;;;4991907;28;20050;-74
2022/03/26 04:41:50;;;;;;;11.75;8.60;;;18.40;50.50;;;;;;4991681;28;20029;-74
2022/03/26 04:44:16;;;;;;;12.10;8.93;;;18.40;50.50;;;;;;4991870;28;20026;-74
2022/03/26 04:46:42;;;;;;;12.50;8.75;;;18.40;50.50;;;;;;4991368;28;20356;-75
2022/03/26 04:49:08;;;;;;;11.70;9.05;;;18.30;50.50;;;;;;4991734;28;20080;-74
2022/03/26 04:51:33;;;;;;;13.90;9.18;;;18.30;50.50;;;;;;4991558;28;20037;-75
2022/03/26 04:53:59;;;;;;;15.63;10.05;;;18.30;50.50;;;;;;4991611;28;20076;-75
2022/03/26 04:56:25;;;;;;;12.95;8.60;;;18.30;50.50;;;;;;4991751;28;20029;-75
2022/03/26 04:58:50;;;;;;;11.32;8.50;;;18.30;50.50;;;;;;4991517;28;20957;-75
2022/03/26 05:01:17;;;;;;;12.25;9.00;;;18.30;50.50;;;;;;4991701;28;20091;-75
2022/03/26 05:03:43;;;;;;;12.98;8.80;;;18.30;50.50;;;;;;4973646;28;20041;-74
2022/03/26 05:06:08;;;;;;;12.10;9.20;;;18.30;50.50;;;;;;4991654;28;20383;-74
2022/03/26 05:08:34;;;;;;;11.75;8.50;;;18.30;50.50;;;;;;4991496;28;20038;-73
2022/03/26 05:11:00;;;;;;;11.85;9.82;;;18.20;50.40;;;;;;4991878;28;20505;-76
2022/03/26 05:13:26;;;;;;;12.65;9.20;;;18.30;50.50;;;;;;4991857;28;20117;-75
2022/03/26 05:15:52;;;;;;;11.38;8.52;;;18.20;50.50;;;;;;4990767;28;20454;-74
2022/03/26 05:18:17;;;;;;;13.70;9.48;;;18.20;50.50;;;;;;4991531;28;20048;-76
2022/03/26 05:20:43;;;;;;;12.50;9.13;;;18.30;50.50;;;;;;4991346;28;20510;-75
2022/03/26 05:23:09;;;;;;;12.65;8.65;;;18.20;50.50;;;;;;4991265;28;20061;-76
2022/03/26 05:25:35;;;;;;;12.10;8.10;;;18.20;50.50;;;;;;4991322;28;20058;-74
2022/03/26 05:28:01;;;;;;;11.65;8.85;;;18.20;50.50;;;;;;4991608;28;20018;-74
2022/03/26 05:30:26;;;;;;;12.73;8.50;;;18.20;50.50;;;;;;4991587;28;20027;-75
2022/03/26 05:32:52;;;;;;;13.10;9.07;;;18.20;50.60;;;;;;4990790;28;20018;-74
2022/03/26 05:35:18;;;;;;;11.90;8.93;;;18.20;50.60;;;;;;4991501;28;20066;-76
2022/03/26 05:37:45;;;;;;;10.88;8.32;;;18.20;50.50;;;;;;4991167;28;20091;-75
2022/03/26 05:40:13;;;;;;;13.45;9.32;;;18.20;50.50;;;;;;4991444;28;20041;-74
2022/03/26 05:42:39;;;;;;;13.23;8.80;;;18.10;50.50;;;;;;4991115;28;20025;-74
2022/03/26 05:45:07;;;;;;;13.80;8.85;;;18.10;50.50;;;;;;4991327;28;20039;-74
2022/03/26 05:47:34;;;;;;;10.93;8.55;;;18.10;50.50;;;;;;4990438;28;20490;-73
2022/03/26 05:50:00;;;;;;;11.93;8.98;;;18.10;50.50;;;;;;4991614;28;20062;-74
2022/03/26 05:52:26;;;;;;;11.43;8.70;;;18.10;50.50;;;;;;4991426;28;20026;-74
2022/03/26 05:54:52;;;;;;;12.65;9.25;;;18.10;50.50;;;;;;4991040;28;20089;-75
2022/03/26 05:57:18;;;;;;;11.75;9.05;;;18.10;50.60;;;;;;4991254;28;20023;-75
2022/03/26 05:59:45;;;;;;;13.75;9.30;;;18.10;50.50;;;;;;4990878;28;20073;-76
2022/03/26 06:02:13;;;;;;;11.68;9.00;;;18.10;50.60;;;;;;4990723;28;20122;-76
2022/03/26 06:04:40;;;;;;;12.23;8.75;;;18.10;50.60;;;;;;4990980;28;20022;-75
2022/03/26 06:07:05;;;;;;;13.15;8.90;;;18.10;50.60;;;;;;4993835;28;20545;-75
2022/03/26 06:09:31;;;;;;;13.13;8.52;;;18.10;50.60;;;;;;4994371;28;20102;-75
2022/03/26 06:11:56;;;;;;;12.77;7.85;;;18.00;50.50;;;;;;4989837;28;20045;-74
2022/03/26 06:14:23;;;;;;;12.23;8.18;;;18.10;50.50;;;;;;4994556;28;20158;-74
2022/03/26 06:16:49;;;;;;;11.98;9.18;;;18.00;50.50;;;;;;4993887;28;20022;-74
2022/03/26 06:19:14;;;;;;;13.90;9.98;;;18.00;50.50;;;;;;4994345;28;20045;-74
2022/03/26 06:21:40;;;;;;;12.60;8.40;;;18.00;50.60;;;;;;4994197;28;20031;-73
2022/03/26 06:24:06;;;;;;;11.43;8.48;;;18.00;51.10;;;;;;4994392;28;20382;-74
2022/03/26 06:26:32;;;;;;;11.85;7.60;;;18.00;50.60;;;;;;4994003;28;20135;-74
2022/03/26 06:28:58;;;;;;;12.35;8.07;;;18.00;50.60;;;;;;4994612;28;20455;-74
2022/03/26 06:31:24;;;;;;;11.82;8.75;;;18.00;50.50;;;;;;4994060;28;20097;-74
2022/03/26 06:33:50;;;;;;;14.70;8.65;;;18.00;50.50;;;;;;4957044;28;20037;-75
2022/03/26 06:36:18;;;;;;;12.55;9.07;;;18.00;50.50;;;;;;4974642;28;20471;-74
2022/03/26 06:38:44;;;;;;;13.45;8.63;;;17.90;50.50;;;;;;4974455;28;20034;-76
2022/03/26 06:41:11;;;;;;;11.10;8.60;;;17.90;50.50;;;;;;4974608;28;20105;-76
2022/03/26 06:43:38;;;;;;;11.57;9.25;;;17.90;50.50;;;;;;4974431;28;20019;-75
2022/03/26 06:46:04;;;;;;;11.05;8.13;;;17.90;50.50;;;;;;4975326;28;20023;-76
2022/03/26 06:48:30;;;;;;;12.30;8.43;;;17.90;50.50;;;;;;4976703;28;20033;-76
2022/03/26 06:50:57;;;;;;;11.50;8.48;;;17.90;50.60;;;;;;4994045;28;20035;-76
2022/03/26 06:53:23;;;;;;;10.98;7.68;;;18.00;50.60;;;;;;4993849;28;20057;-76
2022/03/26 06:55:48;;;;;;;11.75;8.20;;;18.00;50.60;;;;;;4992893;28;20057;-76
2022/03/26 06:58:14;;;;;;;11.30;8.73;;;17.90;50.60;;;;;;4993693;28;20113;-76
2022/03/26 07:00:40;;;;;;;13.18;8.13;;;17.90;50.60;;;;;;4993406;28;20065;-74
2022/03/26 07:03:05;;;;;;;13.30;8.55;;;17.90;50.60;;;;;;4993588;28;20023;-74
2022/03/26 07:05:31;;;;;;;13.13;9.13;;;17.90;50.70;;;;;;4992793;28;20077;-75
2022/03/26 07:07:57;;;;;;;12.82;8.68;;;17.90;50.60;;;;;;4993791;28;20065;-75
2022/03/26 07:10:23;;;;;;;16.08;8.57;;;17.90;50.70;;;;;;4993573;28;20037;-77
2022/03/26 07:12:49;;;;;;;14.52;9.25;;;17.90;50.60;;;;;;4992543;28;20109;-76
2022/03/26 07:15:15;;;;;;;12.35;7.85;;;17.90;50.60;;;;;;4993229;28;20430;-75
2022/03/26 07:17:44;;;;;;;12.60;8.43;;;17.90;50.60;;;;;;4991750;28;20034;-76
2022/03/26 07:20:11;;;;;;;12.48;8.10;;;17.90;50.60;;;;;;4975121;28;20549;-76
2022/03/26 07:22:37;;;;;;;12.93;8.00;;;18.00;50.60;;;;;;4973516;28;20102;-77
2022/03/26 07:25:04;;;;;;;13.07;8.65;;;18.00;50.60;;;;;;4991602;28;20084;-77
2022/03/26 07:27:34;;;;;;;12.05;8.50;;;18.00;50.60;;;;;;4993454;28;20070;-76
2022/03/26 07:29:59;;;;;;;10.75;8.95;;;18.00;50.60;;;;;;4975873;28;20435;-77
2022/03/26 07:32:26;;;;;;;11.75;8.23;;;18.00;50.60;;;;;;4988200;28;20057;-77
2022/03/26 07:34:52;;;;;;;11.52;8.40;;;18.00;50.60;;;;;;4992372;28;20101;-75
2022/03/26 07:37:18;;;;;;;12.63;9.15;;;18.10;50.70;;;;;;4972735;28;20023;-75
2022/03/26 07:39:44;;;;;;;12.48;7.93;;;18.10;50.60;;;;;;4980123;28;20045;-75
2022/03/26 07:42:09;;;;;;;11.93;8.27;;;18.10;50.50;;;;;;4992031;28;20509;-74
2022/03/26 07:44:35;;;;;;;11.10;8.10;;;18.20;50.60;;;;;;4973205;28;20513;-74
2022/03/26 07:47:01;;;;;;;11.35;9.13;;;18.20;50.60;;;;;;4977658;28;20023;-75
2022/03/26 07:49:27;;;;;;;14.80;8.70;;;18.20;50.50;;;;;;4968037;28;20027;-77
2022/03/26 07:51:52;;;;;;;13.23;8.60;;;18.20;50.50;;;;;;4974180;28;20561;-74
2022/03/26 07:54:18;;;;;;;15.48;8.68;;;18.30;50.50;;;;;;4986205;28;20030;-76
2022/03/26 07:56:44;;;;;;;14.32;9.38;;;18.30;50.50;;;;;;4982203;28;20089;-74
2022/03/26 07:59:10;;;;;;;12.27;9.73;;;18.40;50.70;;;;;;4983713;28;20031;-78
2022/03/26 08:01:35;;;;;;;14.82;9.25;;;18.40;50.70;;;;;;4980259;28;20022;-75
2022/03/26 08:04:01;;;;;;;16.25;9.38;;;18.40;50.80;;;;;;4980373;28;20569;-77
2022/03/26 08:06:27;;;;;;;12.10;8.43;;;18.40;50.80;;;;;;4981238;28;20061;-75
2022/03/26 08:08:53;;;;;;;12.13;8.77;;;18.40;50.80;;;;;;4981707;28;20062;-73
2022/03/26 08:11:20;;;;;;;16.88;9.80;;;18.40;50.70;;;;;;4973032;28;20015;-76
2022/03/26 08:13:45;;;;;;;20.55;9.63;;;18.40;50.70;;;;;;4978931;28;20022;-74
2022/03/26 08:16:11;;;;;;;15.05;9.30;;;18.50;50.80;;;;;;4992345;28;20125;-78
2022/03/26 08:18:37;;;;;;;14.73;9.77;;;18.50;50.70;;;;;;4987360;28;20077;-78
2022/03/26 08:21:03;;;;;;;11.35;8.88;;;18.50;50.70;;;;;;4974712;28;20513;-78
2022/03/26 08:23:29;;;;;;;16.10;9.35;;;18.50;50.70;;;;;;4974937;28;20031;-76
2022/03/26 08:28:39;;;;;;;12.00;9.05;;;18.60;50.80;;;;;;4991310;28;20077;-78
2022/03/26 08:31:04;;;;;;;12.18;9.25;;;18.60;50.90;;;;;;4991291;28;20038;-74
2022/03/26 08:33:30;;;;;;;12.85;9.05;;;18.60;51.00;;;;;;4991117;28;20040;-73
2022/03/26 08:35:56;;;;;;;18.58;12.15;;;18.60;51.00;;;;;;4980146;28;20069;-73
2022/03/26 08:38:22;;;;;;;37.05;25.67;;;18.70;51.20;;;;;;4978945;28;20043;-71
2022/03/26 08:40:48;;;;;;;39.92;27.55;;;18.70;51.20;;;;;;4982500;28;20434;-73
2022/03/26 08:43:15;;;;;;;52.17;33.45;;;;;;;;;;4977305;28;20034;-72
2022/03/26 08:45:41;;;;;;;52.47;33.40;;;18.80;51.70;;;;;;4972175;28;20022;-72
2022/03/26 08:48:08;;;;;;;46.97;31.00;;;18.80;51.60;;;;;;4972897;28;20445;-73
2022/03/26 08:50:34;;;;;;;45.35;29.58;;;18.80;51.30;;;;;;4971944;28;20178;-73
2022/03/26 08:53:00;;;;;;;44.03;28.10;;;18.80;51.80;;;;;;4972741;28;20022;-72
2022/03/26 08:55:27;;;;;;;47.25;27.20;;;18.90;51.80;;;;;;4981630;28;20022;-72
2022/03/26 08:57:53;;;;;;;41.33;27.27;;;18.90;51.70;;;;;;4991431;28;20065;-72
2022/03/26 09:00:19;;;;;;;40.38;27.35;;;18.90;51.80;;;;;;4991882;28;20026;-74
2022/03/26 09:02:45;;;;;;;39.15;24.20;;;18.90;51.80;;;;;;4986470;28;20031;-72
2022/03/26 09:05:14;;;;;;;37.45;23.48;;;18.90;52.00;;;;;;4979321;28;20100;-72
2022/03/26 09:07:40;;;;;;;34.75;23.55;;;18.90;52.10;;;;;;4980756;28;20031;-73
2022/03/26 09:10:06;;;;;;;34.78;22.75;;;19.00;52.30;;;;;;4979095;28;20031;-73
2022/03/26 09:12:32;;;;;;;38.35;22.17;;;19.00;52.80;;;;;;4981851;28;20031;-73
2022/03/26 09:14:58;;;;;;;34.97;22.13;;;19.00;53.30;;;;;;4987525;28;20033;-73
2022/03/26 09:17:24;;;;;;;33.55;20.88;;;19.00;53.10;;;;;;4989105;28;20034;-72
2022/03/26 09:19:50;;;;;;;30.15;19.42;;;19.10;53.10;;;;;;4982303;28;20043;-74
2022/03/26 09:22:16;;;;;;;27.40;19.70;;;19.00;53.10;;;;;;4972094;28;20360;-74
2022/03/26 09:24:42;;;;;;;29.23;18.58;;;19.10;53.10;;;;;;4971781;28;20078;-73
2022/03/26 09:27:08;;;;;;;30.23;18.00;;;19.10;53.00;;;;;;4975155;28;20062;-73
2022/03/26 09:29:34;;;;;;;28.90;19.17;;;19.10;52.20;;;;;;4971653;28;20038;-74
2022/03/26 09:32:00;;;;;;;31.98;18.65;;;19.10;52.80;;;;;;4972264;28;20030;-74
2022/03/26 09:34:26;;;;;;;28.05;17.10;;;19.20;52.70;;;;;;4954830;28;20391;-73
2022/03/26 09:36:53;;;;;;;29.08;17.90;;;19.20;53.00;;;;;;4971753;28;20169;-73
2022/03/26 09:39:19;;;;;;;25.05;17.02;;;19.20;52.90;;;;;;4954712;28;20034;-73
2022/03/26 09:41:47;;;;;;;27.67;16.95;;;19.20;53.00;;;;;;4975395;28;20109;-73
2022/03/26 09:44:13;;;;;;;26.15;16.77;;;19.20;53.20;;;;;;4986461;28;20056;-72
2022/03/26 09:46:39;;;;;;;29.42;16.50;;;19.20;53.10;;;;;;4994042;28;20027;-72
2022/03/26 09:49:05;;;;;;;26.38;17.70;;;19.20;53.20;;;;;;4977330;28;20153;-74
2022/03/26 09:51:32;;;;;;;36.55;16.67;;;19.30;53.10;;;;;;4993731;28;20030;-73
2022/03/26 09:53:58;;;;;;;27.45;16.70;;;19.30;53.60;;;;;;4993067;28;20109;-73
2022/03/26 09:56:25;;;;;;;31.55;16.15;;;19.30;53.00;;;;;;4993718;28;20106;-74
2022/03/26 09:58:52;;;;;;;28.13;16.70;;;19.30;52.90;;;;;;4993892;28;20519;-73
2022/03/26 10:01:22;;;;;;;25.98;16.27;;;19.40;52.80;;;;;;4994810;28;20030;-72
2022/03/26 10:04:19;;;;;;;23.63;15.02;;;19.40;52.70;;;;;;4991290;28;20050;-73
2022/03/26 10:06:52;;;;;;;22.90;15.98;;;19.40;52.70;;;;;;4975995;28;20034;-73
2022/03/26 10:09:44;;;;;;;31.45;17.38;;;19.40;52.50;;;;;;4990609;28;20030;-74
2022/03/26 10:12:18;;;;;;;26.65;15.38;;;19.50;52.50;;;;;;4993058;28;20031;-74
2022/03/26 10:14:48;;;;;;;24.58;14.68;;;19.50;52.60;;;;;;4993937;28;20034;-76
2022/03/26 10:17:15;;;;;;;26.13;14.07;;;19.50;52.40;;;;;;4993889;28;20030;-75
2022/03/26 10:19:51;;;;;;;20.92;14.52;;;19.60;52.40;;;;;;4965074;28;20049;-74
2022/03/26 10:22:27;;;;;;;24.83;14.70;;;19.60;52.20;;;;;;4974972;28;20023;-76
2022/03/26 10:24:54;;;;;;;19.05;13.52;;;19.60;52.20;;;;;;4974673;28;20031;-75
2022/03/26 10:27:20;;;;;;;25.50;15.07;;;19.60;52.90;;;;;;4974765;28;20078;-76
2022/03/26 10:29:54;;;;;;;25.08;14.35;;;19.70;52.40;;;;;;4974536;28;20483;-76
2022/03/26 10:32:39;;;;;;;24.35;14.40;;;19.70;52.30;;;;;;4974298;28;20111;-75
2022/03/26 10:35:24;;;;;;;27.42;14.32;;;19.70;52.20;;;;;;4974800;28;20059;-76
2022/03/26 10:37:59;;;;;;;24.10;12.57;;;19.70;52.10;;;;;;4974472;28;20088;-75
2022/03/26 10:40:33;;;;;;;20.67;13.35;;;19.70;52.10;;;;;;4974660;28;20038;-76
2022/03/26 10:43:11;;;;;;;23.58;13.57;;;19.80;52.10;;;;;;4974928;28;20034;-77
2022/03/26 10:45:45;;;;;;;21.35;13.13;;;19.70;51.90;;;;;;4974305;28;20042;-77
2022/03/26 10:48:11;;;;;;;22.55;13.48;;;19.80;51.70;;;;;;4974616;28;20027;-77
2022/03/26 10:50:37;;;;;;;23.33;13.68;;;19.90;51.50;;;;;;4974042;28;20058;-75
2022/03/26 10:53:09;;;;;;;21.10;12.70;;;19.90;51.40;;;;;;4973885;28;20041;-78
2022/03/26 10:55:39;;;;;;;21.83;12.93;;;19.90;51.40;;;;;;4974162;28;20549;-78
2022/03/26 10:58:08;;;;;;;22.65;13.25;;;19.90;51.50;;;;;;4974263;28;20118;-76
2022/03/26 11:00:34;;;;;;;18.15;12.90;;;19.90;51.30;;;;;;4974005;28;20026;-76
2022/03/26 11:03:00;;;;;;;21.70;12.50;;;19.90;51.20;;;;;;4974606;28;20400;-76
2022/03/26 11:05:28;;;;;;;19.48;13.15;;;20.00;51.10;;;;;;4974572;28;20023;-78
2022/03/26 11:07:55;;;;;;;19.02;12.07;;;20.00;51.00;;;;;;4974107;28;20089;-76
2022/03/26 11:10:24;;;;;;;19.52;12.65;;;20.00;51.00;;;;;;4974069;28;20110;-76
2022/03/26 11:12:50;;;;;;;20.67;12.05;;;20.00;50.90;;;;;;4973846;28;20102;-76
2022/03/26 11:15:42;;;;;;;19.95;12.68;;;20.10;50.80;;;;;;4973927;28;20034;-77
2022/03/26 11:18:29;;;;;;;20.80;12.60;;;20.10;50.70;;;;;;4980356;28;20042;-76
2022/03/26 11:21:15;;;;;;;14.93;10.75;;;20.20;50.60;;;;;;4993078;28;20041;-76
2022/03/26 11:23:53;;;;;;;20.23;12.13;;;;;;;;;;4993373;28;20018;-77
2022/03/26 11:26:38;;;;;;;17.55;12.55;;;20.40;49.70;;;;;;4992743;28;20077;-78
2022/03/26 11:29:25;;;;;;;24.60;12.83;;;20.40;50.10;;;;;;4993397;28;20034;-76
2022/03/26 11:31:54;;;;;;;20.52;12.65;;;20.50;50.10;;;;;;4992244;28;20141;-76
2022/03/26 11:34:20;;;;;;;23.73;12.77;;;20.50;50.00;;;;;;4995892;28;20024;-76
2022/03/26 11:36:50;;;;;;;21.70;12.48;;;20.60;50.20;;;;;;4992729;28;20089;-75
2022/03/26 11:39:21;;;;;;;24.60;15.13;;;20.60;50.20;;;;;;4975464;28;20498;-77
2022/03/26 11:41:47;;;;;;;25.33;15.32;;;20.70;49.50;;;;;;4975436;28;20062;-76
2022/03/26 11:44:16;;;;;;;25.38;14.55;;;20.70;49.60;;;;;;4992821;28;20057;-76
2022/03/26 11:52:33;;;;;;;23.05;13.23;;;21.00;49.20;;;;;;4941227;28;20520;-77
2022/03/26 11:55:15;;;;;;;28.90;15.63;;;21.00;49.60;;;;;;4994219;28;20026;-76
2022/03/26 11:57:41;;;;;;;26.83;14.75;;;21.10;49.20;;;;;;4973122;28;20248;-76
2022/03/26 12:00:17;;;;;;;25.88;15.48;;;21.10;49.20;;;;;;4981767;28;20113;-76
2022/03/26 12:02:51;;;;;;;24.80;15.63;;;21.20;49.30;;;;;;4982663;28;20162;-76
2022/03/26 12:08:38;;;;;;;21.77;12.98;;;21.40;49.10;;;;;;4981984;28;20446;-76
2022/03/26 12:11:04;;;;;;;18.27;12.30;;;21.60;48.90;;;;;;4932499;28;20061;-76
2022/03/26 12:13:34;;;;;;;18.45;12.07;;;21.70;48.70;;;;;;4984078;28;20061;-77
2022/03/26 12:16:05;;;;;;;19.00;12.50;;;21.80;48.60;;;;;;4989022;28;20022;-75
2022/03/26 12:18:37;;;;;;;19.83;12.63;;;21.90;48.40;;;;;;4987092;28;20086;-75
2022/03/26 12:21:07;;;;;;;19.75;10.85;;;22.00;48.20;;;;;;4985801;28;20034;-75
2022/03/26 12:23:34;;;;;;;21.52;12.05;;;22.10;48.30;;;;;;4989464;28;20049;-77
2022/03/26 12:26:07;;;;;;;18.52;11.23;;;22.10;48.40;;;;;;4982004;28;20029;-76
2022/03/26 12:28:41;;;;;;;20.27;11.18;;;22.20;48.60;;;;;;4980344;28;20061;-77
2022/03/26 12:31:09;;;;;;;20.25;10.30;;;22.40;47.40;;;;;;4981113;28;20088;-76
2022/03/26 12:33:43;;;;;;;31.95;13.45;;;22.40;47.90;;;;;;4962115;28;20072;-76
2022/03/26 12:36:09;;;;;;;34.58;14.60;;;22.50;47.40;;;;;;4979988;28;20054;-77
2022/03/26 12:38:35;;;;;;;39.05;14.35;;;22.60;47.20;;;;;;4964031;28;20494;-77
2022/03/26 12:41:03;;;;;;;26.77;13.55;;;22.60;47.40;;;;;;4980934;28;20030;-76
2022/03/26 12:43:30;;;;;;;23.88;11.68;;;22.70;47.00;;;;;;4980255;28;20434;-77
2022/03/26 12:45:57;;;;;;;27.13;11.85;;;22.90;46.90;;;;;;4978779;28;20034;-76